Terminal Aerodrome Forecast
Issued by NWS

Current Version | Previous Version | Text Only | Print | Product List | Glossary On
Versions: 1 2 3 4 5 6 7 8 9 10 11 12 13 14 15 16 17 18 19 20 21 22 23 24 25
000
FTUS42 KMFL 170859 AAA
TAFTMB
TAF AMD
KTMB 170859Z 1709/1806 11006KT P6SM FEW030 FEW060
     FM171400 12013KT P6SM SCT035 SCT060
     FM180000 11005KT P6SM FEW025 FEW250=

USA.gov is the U.S. government's official web portal to all federal, state and local government web resources and services.